sensor_id;sensor_type;location;lat;lon;timestamp;pressure;altitude;pressure_sealevel;temperature;humidity
39051;BME280;24805;55.852;37.644;2022-07-22T00:03:33;98943.47;;;17.89;62.68
39051;BME280;24805;55.852;37.644;2022-07-22T00:08:35;98953.16;;;17.90;63.26
39051;BME280;24805;55.852;37.644;2022-07-22T00:13:38;98972.41;;;17.87;63.34
39051;BME280;24805;55.852;37.644;2022-07-22T00:18:40;98981.38;;;17.81;63.40
39051;BME280;24805;55.852;37.644;2022-07-22T00:23:42;98982.38;;;17.75;63.82
39051;BME280;24805;55.852;37.644;2022-07-22T00:28:44;98970.69;;;17.69;64.01
39051;BME280;24805;55.852;37.644;2022-07-22T00:33:46;98973.28;;;17.64;63.65
39051;BME280;24805;55.852;37.644;2022-07-22T00:38:48;98973.13;;;17.59;63.91
39051;BME280;24805;55.852;37.644;2022-07-22T00:44:03;98981.44;;;17.69;64.10
39051;BME280;24805;55.852;37.644;2022-07-22T00:49:07;98980.72;;;17.50;64.50
39051;BME280;24805;55.852;37.644;2022-07-22T00:54:10;98976.53;;;17.43;64.99
39051;BME280;24805;55.852;37.644;2022-07-22T00:59:12;98977.50;;;17.37;65.10
39051;BME280;24805;55.852;37.644;2022-07-22T01:04:15;98961.75;;;17.29;65.07
39051;BME280;24805;55.852;37.644;2022-07-22T01:09:17;98968.16;;;17.28;65.28
39051;BME280;24805;55.852;37.644;2022-07-22T01:14:19;98976.31;;;17.21;65.94
39051;BME280;24805;55.852;37.644;2022-07-22T01:19:22;98959.44;;;17.09;65.84
39051;BME280;24805;55.852;37.644;2022-07-22T01:24:24;98976.81;;;17.18;66.03
39051;BME280;24805;55.852;37.644;2022-07-22T01:29:26;98986.44;;;17.19;65.99
39051;BME280;24805;55.852;37.644;2022-07-22T01:34:28;98989.38;;;17.17;66.15
39051;BME280;24805;55.852;37.644;2022-07-22T01:39:30;99001.25;;;17.21;66.25
39051;BME280;24805;55.852;37.644;2022-07-22T01:44:33;98984.13;;;17.22;65.93
39051;BME280;24805;55.852;37.644;2022-07-22T01:49:35;98994.72;;;17.29;65.62
39051;BME280;24805;55.852;37.644;2022-07-22T01:54:38;98997.53;;;17.34;65.65
39051;BME280;24805;55.852;37.644;2022-07-22T01:59:41;98999.84;;;17.42;65.20
39051;BME280;24805;55.852;37.644;2022-07-22T02:04:43;98992.16;;;17.46;64.88
39051;BME280;24805;55.852;37.644;2022-07-22T02:09:45;99003.13;;;17.56;65.02
39051;BME280;24805;55.852;37.644;2022-07-22T02:14:48;99003.94;;;17.56;64.73
39051;BME280;24805;55.852;37.644;2022-07-22T02:19:50;99011.41;;;17.66;64.37
39051;BME280;24805;55.852;37.644;2022-07-22T02:24:52;99024.34;;;17.69;64.30
39051;BME280;24805;55.852;37.644;2022-07-22T02:29:55;99031.34;;;17.70;64.32
39051;BME280;24805;55.852;37.644;2022-07-22T02:34:57;99044.66;;;17.77;64.34
39051;BME280;24805;55.852;37.644;2022-07-22T02:40:00;99038.19;;;17.89;63.76
39051;BME280;24805;55.852;37.644;2022-07-22T02:45:03;99042.34;;;18.09;63.45
39051;BME280;24805;55.852;37.644;2022-07-22T02:50:06;99047.91;;;18.19;62.77
39051;BME280;24805;55.852;37.644;2022-07-22T02:55:09;99053.16;;;18.25;62.68
39051;BME280;24805;55.852;37.644;2022-07-22T03:00:12;99060.84;;;18.34;62.38
39051;BME280;24805;55.852;37.644;2022-07-22T03:05:15;99065.81;;;18.42;62.36
39051;BME280;24805;55.852;37.644;2022-07-22T03:10:24;99060.44;;;18.53;61.91
39051;BME280;24805;55.852;37.644;2022-07-22T03:15:26;99067.63;;;18.65;61.56
39051;BME280;24805;55.852;37.644;2022-07-22T03:20:28;99070.03;;;18.78;61.48
39051;BME280;24805;55.852;37.644;2022-07-22T03:25:31;99069.16;;;18.89;61.28
39051;BME280;24805;55.852;37.644;2022-07-22T03:30:34;99077.22;;;19.06;61.00
39051;BME280;24805;55.852;37.644;2022-07-22T03:35:37;99089.28;;;19.20;60.47
39051;BME280;24805;55.852;37.644;2022-07-22T03:40:40;99097.88;;;19.34;60.19
39051;BME280;24805;55.852;37.644;2022-07-22T03:45:42;99099.66;;;19.45;59.67
39051;BME280;24805;55.852;37.644;2022-07-22T03:50:45;99100.09;;;19.53;59.21
39051;BME280;24805;55.852;37.644;2022-07-22T03:55:49;99103.75;;;19.64;58.68
39051;BME280;24805;55.852;37.644;2022-07-22T04:00:53;99096.16;;;19.78;58.75
39051;BME280;24805;55.852;37.644;2022-07-22T04:05:55;99100.28;;;19.85;58.60
39051;BME280;24805;55.852;37.644;2022-07-22T04:11:09;99112.03;;;19.96;58.19
39051;BME280;24805;55.852;37.644;2022-07-22T04:16:11;99112.47;;;20.10;57.53
39051;BME280;24805;55.852;37.644;2022-07-22T04:21:21;99118.38;;;20.28;57.50
39051;BME280;24805;55.852;37.644;2022-07-22T04:26:27;99115.34;;;20.42;57.17
39051;BME280;24805;55.852;37.644;2022-07-22T04:31:30;99129.50;;;20.54;56.69
39051;BME280;24805;55.852;37.644;2022-07-22T04:36:58;99123.78;;;20.72;56.40
39051;BME280;24805;55.852;37.644;2022-07-22T04:42:02;99123.13;;;20.87;55.80
39051;BME280;24805;55.852;37.644;2022-07-22T04:47:07;99137.25;;;20.99;55.35
39051;BME280;24805;55.852;37.644;2022-07-22T04:52:12;99130.34;;;21.08;55.25
39051;BME280;24805;55.852;37.644;2022-07-22T04:57:20;99137.47;;;21.19;55.06
39051;BME280;24805;55.852;37.644;2022-07-22T05:02:24;99133.00;;;21.30;54.99
39051;BME280;24805;55.852;37.644;2022-07-22T05:07:26;99138.84;;;21.49;54.21
39051;BME280;24805;55.852;37.644;2022-07-22T05:12:28;99138.13;;;21.63;53.98
39051;BME280;24805;55.852;37.644;2022-07-22T05:17:31;99148.22;;;21.73;53.91
39051;BME280;24805;55.852;37.644;2022-07-22T05:22:49;99152.63;;;21.89;53.27
39051;BME280;24805;55.852;37.644;2022-07-22T05:28:01;99149.16;;;21.99;52.27
39051;BME280;24805;55.852;37.644;2022-07-22T05:33:08;99151.91;;;22.46;51.79
39051;BME280;24805;55.852;37.644;2022-07-22T05:38:37;99143.25;;;23.73;49.60
39051;BME280;24805;55.852;37.644;2022-07-22T05:43:40;99154.63;;;25.24;45.76
39051;BME280;24805;55.852;37.644;2022-07-22T05:48:43;99154.88;;;26.48;42.67
39051;BME280;24805;55.852;37.644;2022-07-22T05:53:46;99160.63;;;27.64;40.90
39051;BME280;24805;55.852;37.644;2022-07-22T05:58:48;99166.91;;;28.38;38.91
39051;BME280;24805;55.852;37.644;2022-07-22T06:03:50;99160.38;;;29.39;36.78
39051;BME280;24805;55.852;37.644;2022-07-22T06:08:52;99157.09;;;30.26;34.70
39051;BME280;24805;55.852;37.644;2022-07-22T06:13:56;99145.22;;;31.05;33.69
39051;BME280;24805;55.852;37.644;2022-07-22T06:18:58;99156.66;;;31.59;31.54
39051;BME280;24805;55.852;37.644;2022-07-22T06:24:02;99159.47;;;32.14;31.41
39051;BME280;24805;55.852;37.644;2022-07-22T06:29:04;99158.06;;;32.46;29.93
39051;BME280;24805;55.852;37.644;2022-07-22T06:34:06;99152.25;;;32.47;30.21
39051;BME280;24805;55.852;37.644;2022-07-22T06:39:25;99162.84;;;32.58;29.61
39051;BME280;24805;55.852;37.644;2022-07-22T06:44:44;99165.69;;;33.20;28.67
39051;BME280;24805;55.852;37.644;2022-07-22T06:49:57;99180.47;;;34.02;27.71
39051;BME280;24805;55.852;37.644;2022-07-22T06:54:59;99166.69;;;34.72;25.90
39051;BME280;24805;55.852;37.644;2022-07-22T07:00:08;99174.63;;;35.26;25.44
39051;BME280;24805;55.852;37.644;2022-07-22T07:05:30;99160.16;;;35.84;24.59
39051;BME280;24805;55.852;37.644;2022-07-22T07:10:32;99170.59;;;36.22;23.40
39051;BME280;24805;55.852;37.644;2022-07-22T07:15:43;99180.28;;;36.95;22.63
39051;BME280;24805;55.852;37.644;2022-07-22T07:20:45;99170.63;;;37.05;23.05
39051;BME280;24805;55.852;37.644;2022-07-22T07:25:48;99182.41;;;37.56;21.52
39051;BME280;24805;55.852;37.644;2022-07-22T07:30:51;99169.16;;;38.30;21.18
39051;BME280;24805;55.852;37.644;2022-07-22T07:35:55;99165.56;;;39.35;19.70
39051;BME280;24805;55.852;37.644;2022-07-22T07:41:09;99165.25;;;40.14;18.76
39051;BME280;24805;55.852;37.644;2022-07-22T07:46:13;99165.25;;;41.24;17.38
39051;BME280;24805;55.852;37.644;2022-07-22T07:51:15;99170.31;;;41.08;17.16
39051;BME280;24805;55.852;37.644;2022-07-22T07:56:18;99178.22;;;41.96;16.79
39051;BME280;24805;55.852;37.644;2022-07-22T08:01:20;99169.84;;;41.96;16.96
39051;BME280;24805;55.852;37.644;2022-07-22T08:06:42;99170.31;;;42.44;16.08
39051;BME280;24805;55.852;37.644;2022-07-22T08:11:44;99173.41;;;43.00;16.25
39051;BME280;24805;55.852;37.644;2022-07-22T08:17:06;99169.59;;;43.63;15.69
39051;BME280;24805;55.852;37.644;2022-07-22T08:22:10;99171.13;;;44.78;14.19
39051;BME280;24805;55.852;37.644;2022-07-22T08:27:15;99164.63;;;45.83;13.42
39051;BME280;24805;55.852;37.644;2022-07-22T08:32:18;99174.47;;;46.45;12.86
39051;BME280;24805;55.852;37.644;2022-07-22T08:37:20;99182.16;;;47.08;12.07
39051;BME280;24805;55.852;37.644;2022-07-22T08:42:22;99191.47;;;47.01;12.18
39051;BME280;24805;55.852;37.644;2022-07-22T08:47:25;99173.69;;;46.68;11.89
39051;BME280;24805;55.852;37.644;2022-07-22T08:53:14;99163.25;;;45.68;12.63
39051;BME280;24805;55.852;37.644;2022-07-22T08:58:18;99186.06;;;44.61;13.85
39051;BME280;24805;55.852;37.644;2022-07-22T09:03:24;99199.47;;;44.80;13.85
39051;BME280;24805;55.852;37.644;2022-07-22T09:14:17;99197.72;;;43.03;14.81
39051;BME280;24805;55.852;37.644;2022-07-22T09:19:38;99188.22;;;42.64;14.77
39051;BME280;24805;55.852;37.644;2022-07-22T09:25:33;99197.56;;;43.49;15.26
39051;BME280;24805;55.852;37.644;2022-07-22T09:30:54;99190.94;;;44.94;13.38
39051;BME280;24805;55.852;37.644;2022-07-22T09:36:04;99189.81;;;46.37;12.80
39051;BME280;24805;55.852;37.644;2022-07-22T09:41:10;99183.44;;;45.83;12.04
39051;BME280;24805;55.852;37.644;2022-07-22T09:46:13;99188.31;;;44.32;13.10
39051;BME280;24805;55.852;37.644;2022-07-22T09:51:41;99190.41;;;43.44;13.88
39051;BME280;24805;55.852;37.644;2022-07-22T09:56:56;99192.84;;;45.01;12.87
39051;BME280;24805;55.852;37.644;2022-07-22T10:01:58;99186.81;;;45.40;12.76
39051;BME280;24805;55.852;37.644;2022-07-22T10:07:04;99184.63;;;45.24;12.75
39051;BME280;24805;55.852;37.644;2022-07-22T10:12:12;99198.38;;;45.42;12.43
39051;BME280;24805;55.852;37.644;2022-07-22T10:17:17;99198.22;;;47.83;11.15
39051;BME280;24805;55.852;37.644;2022-07-22T10:28:00;99202.63;;;48.00;11.00
39051;BME280;24805;55.852;37.644;2022-07-22T10:33:15;99191.97;;;49.59;10.15
39051;BME280;24805;55.852;37.644;2022-07-22T10:38:20;99195.25;;;49.58;9.15
39051;BME280;24805;55.852;37.644;2022-07-22T10:54:03;99210.69;;;45.52;12.56
39051;BME280;24805;55.852;37.644;2022-07-22T10:59:09;99214.97;;;44.44;13.12
39051;BME280;24805;55.852;37.644;2022-07-22T11:04:20;99213.38;;;46.43;11.94
39051;BME280;24805;55.852;37.644;2022-07-22T11:09:32;99199.56;;;47.58;11.66
39051;BME280;24805;55.852;37.644;2022-07-22T11:14:35;99176.72;;;48.09;10.79
39051;BME280;24805;55.852;37.644;2022-07-22T11:19:39;99191.31;;;45.91;11.91
39051;BME280;24805;55.852;37.644;2022-07-22T11:24:41;99188.13;;;45.62;12.40
39051;BME280;24805;55.852;37.644;2022-07-22T11:29:48;99203.78;;;44.92;12.51
39051;BME280;24805;55.852;37.644;2022-07-22T11:34:51;99194.56;;;44.50;12.58
39051;BME280;24805;55.852;37.644;2022-07-22T11:40:04;99185.94;;;46.31;11.31
39051;BME280;24805;55.852;37.644;2022-07-22T11:45:07;99190.50;;;46.45;11.82
39051;BME280;24805;55.852;37.644;2022-07-22T11:50:09;99193.91;;;44.32;13.25
39051;BME280;24805;55.852;37.644;2022-07-22T11:55:15;99208.03;;;41.88;14.56
39051;BME280;24805;55.852;37.644;2022-07-22T12:00:18;99182.13;;;41.67;15.09
39051;BME280;24805;55.852;37.644;2022-07-22T12:05:20;99185.19;;;41.37;15.67
39051;BME280;24805;55.852;37.644;2022-07-22T12:10:38;99183.06;;;40.54;16.40
39051;BME280;24805;55.852;37.644;2022-07-22T12:15:40;99195.50;;;38.92;17.59
39051;BME280;24805;55.852;37.644;2022-07-22T12:20:49;99198.91;;;36.98;18.93
39051;BME280;24805;55.852;37.644;2022-07-22T12:25:58;99205.75;;;35.66;20.18
39051;BME280;24805;55.852;37.644;2022-07-22T12:31:01;99199.88;;;35.40;20.45
39051;BME280;24805;55.852;37.644;2022-07-22T12:36:05;99181.16;;;36.99;19.87
39051;BME280;24805;55.852;37.644;2022-07-22T12:41:22;99174.41;;;39.14;18.33
39051;BME280;24805;55.852;37.644;2022-07-22T12:46:24;99182.69;;;38.58;18.04
39051;BME280;24805;55.852;37.644;2022-07-22T12:51:27;99179.66;;;38.93;17.36
39051;BME280;24805;55.852;37.644;2022-07-22T12:56:29;99177.09;;;38.32;18.06
39051;BME280;24805;55.852;37.644;2022-07-22T13:01:37;99178.53;;;38.03;18.17
39051;BME280;24805;55.852;37.644;2022-07-22T13:06:39;99179.13;;;36.96;18.89
39051;BME280;24805;55.852;37.644;2022-07-22T13:11:42;99189.28;;;35.54;19.58
39051;BME280;24805;55.852;37.644;2022-07-22T13:16:47;99198.22;;;34.99;20.45
39051;BME280;24805;55.852;37.644;2022-07-22T13:21:50;99183.75;;;35.14;20.89
39051;BME280;24805;55.852;37.644;2022-07-22T13:26:52;99178.38;;;34.81;21.50
39051;BME280;24805;55.852;37.644;2022-07-22T13:31:54;99189.34;;;34.20;22.64
39051;BME280;24805;55.852;37.644;2022-07-22T13:37:16;99186.13;;;33.10;23.52
39051;BME280;24805;55.852;37.644;2022-07-22T13:42:19;99174.63;;;32.20;24.76
39051;BME280;24805;55.852;37.644;2022-07-22T13:47:21;99182.31;;;31.89;25.44
39051;BME280;24805;55.852;37.644;2022-07-22T13:52:24;99181.03;;;31.86;25.13
39051;BME280;24805;55.852;37.644;2022-07-22T13:57:26;99183.59;;;31.91;26.19
39051;BME280;24805;55.852;37.644;2022-07-22T14:02:29;99185.25;;;31.75;26.08
39051;BME280;24805;55.852;37.644;2022-07-22T14:07:31;99191.22;;;31.68;25.90
39051;BME280;24805;55.852;37.644;2022-07-22T14:12:33;99194.09;;;31.63;25.29
39051;BME280;24805;55.852;37.644;2022-07-22T14:17:35;99189.72;;;31.97;25.45
39051;BME280;24805;55.852;37.644;2022-07-22T14:22:38;99184.81;;;32.11;24.73
39051;BME280;24805;55.852;37.644;2022-07-22T14:27:40;99177.47;;;31.85;24.57
39051;BME280;24805;55.852;37.644;2022-07-22T14:32:43;99187.66;;;31.42;25.59
39051;BME280;24805;55.852;37.644;2022-07-22T14:37:45;99175.69;;;31.03;26.00
39051;BME280;24805;55.852;37.644;2022-07-22T14:42:47;99173.56;;;30.83;25.67
39051;BME280;24805;55.852;37.644;2022-07-22T14:48:10;99195.00;;;30.90;26.56
39051;BME280;24805;55.852;37.644;2022-07-22T14:53:12;99196.03;;;31.20;26.53
39051;BME280;24805;55.852;37.644;2022-07-22T14:58:15;99194.28;;;31.32;26.13
39051;BME280;24805;55.852;37.644;2022-07-22T15:03:17;99204.75;;;31.30;25.57
39051;BME280;24805;55.852;37.644;2022-07-22T15:08:19;99196.53;;;31.13;26.17
39051;BME280;24805;55.852;37.644;2022-07-22T15:13:21;99203.22;;;30.98;26.41
39051;BME280;24805;55.852;37.644;2022-07-22T15:18:28;99206.41;;;30.83;26.72
39051;BME280;24805;55.852;37.644;2022-07-22T15:23:30;99210.22;;;30.65;27.50
39051;BME280;24805;55.852;37.644;2022-07-22T15:28:32;99211.88;;;30.35;27.73
39051;BME280;24805;55.852;37.644;2022-07-22T15:33:36;99216.41;;;30.08;28.06
39051;BME280;24805;55.852;37.644;2022-07-22T15:38:40;99219.69;;;29.74;28.49
39051;BME280;24805;55.852;37.644;2022-07-22T15:43:42;99218.75;;;29.57;29.17
39051;BME280;24805;55.852;37.644;2022-07-22T15:48:44;99215.38;;;29.37;30.05
39051;BME280;24805;55.852;37.644;2022-07-22T15:53:57;99217.84;;;29.11;29.71
39051;BME280;24805;55.852;37.644;2022-07-22T15:58:59;99218.66;;;28.98;29.78
39051;BME280;24805;55.852;37.644;2022-07-22T16:04:29;99226.69;;;28.81;29.62
39051;BME280;24805;55.852;37.644;2022-07-22T16:09:32;99229.19;;;28.64;29.86
39051;BME280;24805;55.852;37.644;2022-07-22T16:14:34;99225.13;;;28.48;30.60
39051;BME280;24805;55.852;37.644;2022-07-22T16:19:36;99216.22;;;28.28;30.49
39051;BME280;24805;55.852;37.644;2022-07-22T16:24:39;99215.06;;;28.16;30.76
39051;BME280;24805;55.852;37.644;2022-07-22T16:29:41;99225.22;;;27.96;30.68
39051;BME280;24805;55.852;37.644;2022-07-22T16:34:44;99224.94;;;27.79;30.98
39051;BME280;24805;55.852;37.644;2022-07-22T16:39:46;99229.56;;;27.65;31.61
39051;BME280;24805;55.852;37.644;2022-07-22T16:44:48;99227.56;;;27.52;31.53
39051;BME280;24805;55.852;37.644;2022-07-22T16:49:51;99231.31;;;27.37;31.98
39051;BME280;24805;55.852;37.644;2022-07-22T16:54:53;99236.38;;;27.25;32.17
39051;BME280;24805;55.852;37.644;2022-07-22T16:59:57;99240.94;;;27.10;32.39
39051;BME280;24805;55.852;37.644;2022-07-22T17:04:59;99233.00;;;26.90;32.84
39051;BME280;24805;55.852;37.644;2022-07-22T17:10:02;99234.81;;;26.76;32.91
39051;BME280;24805;55.852;37.644;2022-07-22T17:15:06;99239.88;;;26.59;33.48
39051;BME280;24805;55.852;37.644;2022-07-22T17:20:15;99240.88;;;26.44;34.12
39051;BME280;24805;55.852;37.644;2022-07-22T17:25:18;99230.47;;;26.22;34.90
39051;BME280;24805;55.852;37.644;2022-07-22T17:30:20;99241.19;;;26.08;35.18
39051;BME280;24805;55.852;37.644;2022-07-22T17:35:24;99245.16;;;25.92;35.74
39051;BME280;24805;55.852;37.644;2022-07-22T17:40:26;99249.66;;;25.73;36.46
39051;BME280;24805;55.852;37.644;2022-07-22T17:45:29;99243.81;;;25.46;36.79
39051;BME280;24805;55.852;37.644;2022-07-22T17:50:31;99254.22;;;25.33;37.32
39051;BME280;24805;55.852;37.644;2022-07-22T17:55:39;99255.16;;;25.14;37.94
39051;BME280;24805;55.852;37.644;2022-07-22T18:00:41;99235.66;;;25.01;38.19
39051;BME280;24805;55.852;37.644;2022-07-22T18:05:44;99228.09;;;24.88;38.69
39051;BME280;24805;55.852;37.644;2022-07-22T18:10:46;99223.81;;;24.72;39.11
39051;BME280;24805;55.852;37.644;2022-07-22T18:15:48;99221.13;;;24.62;39.45
39051;BME280;24805;55.852;37.644;2022-07-22T18:20:50;99221.47;;;24.45;40.05
39051;BME280;24805;55.852;37.644;2022-07-22T18:25:52;99231.50;;;24.39;40.35
39051;BME280;24805;55.852;37.644;2022-07-22T18:30:55;99236.69;;;24.31;41.12
39051;BME280;24805;55.852;37.644;2022-07-22T18:35:57;99234.25;;;24.24;41.24
39051;BME280;24805;55.852;37.644;2022-07-22T18:40:59;99226.94;;;24.10;41.24
39051;BME280;24805;55.852;37.644;2022-07-22T18:46:02;99233.69;;;24.07;41.59
39051;BME280;24805;55.852;37.644;2022-07-22T18:51:05;99238.56;;;24.05;41.92
39051;BME280;24805;55.852;37.644;2022-07-22T18:56:08;99233.97;;;23.90;41.87
39051;BME280;24805;55.852;37.644;2022-07-22T19:01:12;99232.34;;;23.79;42.44
39051;BME280;24805;55.852;37.644;2022-07-22T19:06:14;99231.25;;;23.65;42.88
39051;BME280;24805;55.852;37.644;2022-07-22T19:11:16;99222.00;;;23.46;43.17
39051;BME280;24805;55.852;37.644;2022-07-22T19:16:18;99227.41;;;23.41;43.60
39051;BME280;24805;55.852;37.644;2022-07-22T19:21:21;99236.34;;;23.36;43.43
39051;BME280;24805;55.852;37.644;2022-07-22T19:26:23;99237.41;;;23.30;43.98
39051;BME280;24805;55.852;37.644;2022-07-22T19:31:25;99242.25;;;23.23;43.62
39051;BME280;24805;55.852;37.644;2022-07-22T19:36:30;99239.56;;;23.18;44.50
39051;BME280;24805;55.852;37.644;2022-07-22T19:41:32;99238.44;;;23.09;44.48
39051;BME280;24805;55.852;37.644;2022-07-22T19:46:34;99231.34;;;22.92;44.58
39051;BME280;24805;55.852;37.644;2022-07-22T19:51:36;99246.19;;;22.85;45.07
39051;BME280;24805;55.852;37.644;2022-07-22T19:56:38;99249.09;;;22.73;45.37
39051;BME280;24805;55.852;37.644;2022-07-22T20:01:41;99250.38;;;22.65;45.35
39051;BME280;24805;55.852;37.644;2022-07-22T20:06:43;99255.22;;;22.58;46.02
39051;BME280;24805;55.852;37.644;2022-07-22T20:11:45;99245.16;;;22.49;46.04
39051;BME280;24805;55.852;37.644;2022-07-22T20:16:47;99251.59;;;22.38;46.40
39051;BME280;24805;55.852;37.644;2022-07-22T20:21:49;99263.44;;;22.31;46.93
39051;BME280;24805;55.852;37.644;2022-07-22T20:26:51;99267.47;;;22.29;47.02
39051;BME280;24805;55.852;37.644;2022-07-22T20:31:53;99257.69;;;22.18;47.21
39051;BME280;24805;55.852;37.644;2022-07-22T20:36:55;99265.44;;;22.09;47.68
39051;BME280;24805;55.852;37.644;2022-07-22T20:41:58;99270.44;;;21.95;47.67
39051;BME280;24805;55.852;37.644;2022-07-22T20:47:20;99269.78;;;21.83;47.92
39051;BME280;24805;55.852;37.644;2022-07-22T20:52:22;99275.13;;;21.78;48.35
39051;BME280;24805;55.852;37.644;2022-07-22T20:57:43;99275.09;;;21.73;48.68
39051;BME280;24805;55.852;37.644;2022-07-22T21:03:02;99285.84;;;21.68;48.87
39051;BME280;24805;55.852;37.644;2022-07-22T21:08:05;99288.50;;;21.63;49.03
39051;BME280;24805;55.852;37.644;2022-07-22T21:13:07;99286.22;;;21.50;49.73
39051;BME280;24805;55.852;37.644;2022-07-22T21:18:09;99293.44;;;21.44;49.74
39051;BME280;24805;55.852;37.644;2022-07-22T21:23:11;99305.53;;;21.42;50.10
39051;BME280;24805;55.852;37.644;2022-07-22T21:28:14;99294.16;;;21.35;50.49
39051;BME280;24805;55.852;37.644;2022-07-22T21:33:16;99290.81;;;21.27;50.60
39051;BME280;24805;55.852;37.644;2022-07-22T21:38:18;99305.06;;;21.23;50.91
39051;BME280;24805;55.852;37.644;2022-07-22T21:43:20;99302.22;;;21.13;51.04
39051;BME280;24805;55.852;37.644;2022-07-22T21:48:25;99306.41;;;21.04;51.48
39051;BME280;24805;55.852;37.644;2022-07-22T21:53:27;99311.72;;;20.98;51.79
39051;BME280;24805;55.852;37.644;2022-07-22T21:58:30;99315.69;;;20.91;51.63
39051;BME280;24805;55.852;37.644;2022-07-22T22:03:32;99317.75;;;20.84;51.94
39051;BME280;24805;55.852;37.644;2022-07-22T22:08:34;99322.00;;;20.80;52.20
39051;BME280;24805;55.852;37.644;2022-07-22T22:13:36;99313.03;;;20.74;52.50
39051;BME280;24805;55.852;37.644;2022-07-22T22:18:38;99325.72;;;20.74;52.51
39051;BME280;24805;55.852;37.644;2022-07-22T22:23:41;99324.81;;;20.68;52.83
39051;BME280;24805;55.852;37.644;2022-07-22T22:28:43;99330.59;;;20.60;52.86
39051;BME280;24805;55.852;37.644;2022-07-22T22:33:45;99334.31;;;20.54;53.22
39051;BME280;24805;55.852;37.644;2022-07-22T22:38:48;99333.16;;;20.50;53.34
39051;BME280;24805;55.852;37.644;2022-07-22T22:43:51;99336.25;;;20.42;53.62
39051;BME280;24805;55.852;37.644;2022-07-22T22:48:53;99332.56;;;20.31;53.26
39051;BME280;24805;55.852;37.644;2022-07-22T22:53:55;99332.00;;;20.29;53.79
39051;BME280;24805;55.852;37.644;2022-07-22T22:58:58;99328.97;;;20.25;53.94
39051;BME280;24805;55.852;37.644;2022-07-22T23:04:00;99332.16;;;20.22;53.95
39051;BME280;24805;55.852;37.644;2022-07-22T23:09:03;99341.53;;;20.20;54.04
39051;BME280;24805;55.852;37.644;2022-07-22T23:14:05;99339.25;;;20.12;54.15
39051;BME280;24805;55.852;37.644;2022-07-22T23:19:08;99338.69;;;20.10;54.63
39051;BME280;24805;55.852;37.644;2022-07-22T23:24:12;99343.16;;;20.04;54.57
39051;BME280;24805;55.852;37.644;2022-07-22T23:29:14;99334.75;;;20.01;54.63
39051;BME280;24805;55.852;37.644;2022-07-22T23:34:16;99335.25;;;19.98;54.77
39051;BME280;24805;55.852;37.644;2022-07-22T23:39:18;99336.81;;;19.93;55.13
39051;BME280;24805;55.852;37.644;2022-07-22T23:50:12;99325.19;;;19.76;55.37
39051;BME280;24805;55.852;37.644;2022-07-22T23:55:14;99340.13;;;19.84;55.49
